createdAt,value
2023-05-09T00:01:46.695Z,15.18
2023-05-09T00:04:13.904Z,14.50
2023-05-09T00:06:41.088Z,14.27
2023-05-09T00:09:08.230Z,14.63
2023-05-09T00:11:35.263Z,14.02
2023-05-09T00:14:03.419Z,14.07
2023-05-09T00:16:33.121Z,14.38
2023-05-09T00:19:00.396Z,13.85
2023-05-09T00:21:28.361Z,14.07
2023-05-09T00:23:55.890Z,14.30
2023-05-09T00:26:23.672Z,13.85
2023-05-09T00:28:50.760Z,15.13
2023-05-09T00:31:18.348Z,13.50
2023-05-09T00:33:45.413Z,13.93
2023-05-09T00:36:12.737Z,14.27
2023-05-09T00:38:39.816Z,14.18
2023-05-09T00:41:07.157Z,14.07
2023-05-09T00:43:34.244Z,15.48
2023-05-09T00:46:01.634Z,16.52
2023-05-09T00:48:28.921Z,16.73
2023-05-09T00:50:56.615Z,16.52
2023-05-09T00:53:25.058Z,15.63
2023-05-09T00:55:52.879Z,15.07
2023-05-09T00:58:20.084Z,15.60
2023-05-09T01:00:48.193Z,15.68
2023-05-09T01:03:15.818Z,14.68
2023-05-09T01:06:07.087Z,15.82
2023-05-09T01:08:45.307Z,16.13
2023-05-09T01:11:33.508Z,17.33
2023-05-09T01:14:20.649Z,16.27
2023-05-09T01:16:56.536Z,18.40
2023-05-09T01:19:54.339Z,19.45
2023-05-09T01:22:25.763Z,17.98
2023-05-09T01:25:16.483Z,19.13
2023-05-09T01:27:58.664Z,22.05
2023-05-09T01:30:27.666Z,21.77
2023-05-09T01:33:00.351Z,22.95
2023-05-09T01:35:30.409Z,24.40
2023-05-09T01:37:59.885Z,23.85
2023-05-09T01:40:30.796Z,21.42
2023-05-09T01:43:07.250Z,20.38
2023-05-09T01:45:36.311Z,20.42
2023-05-09T01:48:05.822Z,20.35
2023-05-09T01:50:34.317Z,20.95
2023-05-09T01:53:02.109Z,21.52
2023-05-09T01:55:34.574Z,21.05
2023-05-09T01:58:05.323Z,20.60
2023-05-09T02:00:34.664Z,18.42
2023-05-09T02:03:04.025Z,20.25
2023-05-09T02:05:33.364Z,20.90
2023-05-09T02:08:00.575Z,22.70
2023-05-09T02:10:29.216Z,21.55
2023-05-09T02:12:57.691Z,22.77
2023-05-09T02:15:26.096Z,22.65
2023-05-09T02:17:53.415Z,22.35
2023-05-09T02:20:20.634Z,22.15
2023-05-09T02:22:48.245Z,23.52
2023-05-09T02:25:16.133Z,22.38
2023-05-09T02:27:45.742Z,22.63
2023-05-09T02:30:18.873Z,21.95
2023-05-09T02:32:49.052Z,22.38
2023-05-09T02:35:18.611Z,22.08
2023-05-09T02:37:46.396Z,23.20
2023-05-09T02:40:14.624Z,21.40
2023-05-09T02:42:42.011Z,25.77
2023-05-09T02:45:10.785Z,24.80
2023-05-09T02:47:38.650Z,25.42
2023-05-09T02:50:06.995Z,25.75
2023-05-09T02:52:36.150Z,26.45
2023-05-09T02:55:03.826Z,26.02
2023-05-09T02:57:34.050Z,27.13
2023-05-09T03:00:01.282Z,29.05
2023-05-09T03:02:29.425Z,30.25
2023-05-09T03:04:57.743Z,31.27
2023-05-09T03:07:24.776Z,30.38
2023-05-09T03:09:51.900Z,29.52
2023-05-09T03:12:18.954Z,31.17
2023-05-09T03:14:46.224Z,30.75
2023-05-09T03:17:17.373Z,32.58
2023-05-09T03:19:45.008Z,25.33
2023-05-09T03:22:12.057Z,24.00
2023-05-09T03:24:45.530Z,27.35
2023-05-09T03:27:13.011Z,28.60
2023-05-09T03:29:39.979Z,25.75
2023-05-09T03:32:07.205Z,23.13
2023-05-09T03:34:34.358Z,20.25
2023-05-09T03:37:02.160Z,21.17
2023-05-09T03:39:30.715Z,20.73
2023-05-09T03:41:58.071Z,21.27
2023-05-09T03:44:25.787Z,20.35
2023-05-09T03:46:53.364Z,20.23
2023-05-09T03:49:20.820Z,20.98
2023-05-09T03:51:51.751Z,21.08
2023-05-09T03:54:18.875Z,19.95
2023-05-09T03:56:47.394Z,21.10
2023-05-09T03:59:14.509Z,27.20
2023-05-09T04:15:20.286Z,34.45
2023-05-09T04:17:47.665Z,32.83
2023-05-09T04:20:16.133Z,32.25
2023-05-09T04:22:46.074Z,31.55
2023-05-09T04:25:16.316Z,34.45
2023-05-09T04:27:44.000Z,36.47
2023-05-09T04:30:11.605Z,36.55
2023-05-09T04:32:39.143Z,34.95
2023-05-09T04:35:08.346Z,28.42
2023-05-09T04:37:40.132Z,28.38
2023-05-09T04:40:09.187Z,25.83
2023-05-09T04:42:45.553Z,23.73
2023-05-09T04:45:13.181Z,25.58
2023-05-09T04:47:40.738Z,25.90
2023-05-09T04:50:08.573Z,28.77
2023-05-09T04:52:36.131Z,27.30
2023-05-09T04:55:03.754Z,28.50
2023-05-09T04:57:36.225Z,29.75
2023-05-09T05:00:07.214Z,29.70
2023-05-09T05:02:36.222Z,27.88
2023-05-09T05:05:11.437Z,27.80
2023-05-09T05:07:42.517Z,26.10
2023-05-09T05:10:11.890Z,26.92
2023-05-09T05:12:41.364Z,24.50
2023-05-09T05:15:12.242Z,21.67
2023-05-09T05:17:40.428Z,20.55
2023-05-09T05:20:10.888Z,18.05
2023-05-09T05:22:42.836Z,12.55
2023-05-09T05:25:10.420Z,12.75
2023-05-09T05:27:39.246Z,11.25
2023-05-09T05:30:08.376Z,8.80
2023-05-09T05:32:36.436Z,9.25
2023-05-09T05:35:05.203Z,8.38
2023-05-09T05:37:35.579Z,9.60
2023-05-09T05:40:03.060Z,9.40
2023-05-09T05:42:31.104Z,9.25
2023-05-09T05:45:04.401Z,9.27
2023-05-09T05:47:37.342Z,9.93
2023-05-09T05:50:12.004Z,10.77
2023-05-09T05:52:40.712Z,10.65
2023-05-09T05:55:10.737Z,10.40
2023-05-09T05:57:39.265Z,11.27
2023-05-09T06:00:12.032Z,10.73
2023-05-09T06:02:48.071Z,10.60
2023-05-09T06:05:35.665Z,11.00
2023-05-09T06:08:03.151Z,10.85
2023-05-09T06:10:32.192Z,10.82
2023-05-09T06:13:12.345Z,10.77
2023-05-09T06:15:43.730Z,9.70
2023-05-09T06:18:11.280Z,10.73
2023-05-09T06:20:38.437Z,9.77
2023-05-09T06:23:05.583Z,10.55
2023-05-09T06:25:32.618Z,8.98
2023-05-09T06:27:59.681Z,9.88
2023-05-09T06:30:27.277Z,9.70
2023-05-09T06:32:55.433Z,9.18
2023-05-09T06:35:22.752Z,9.80
2023-05-09T06:37:50.452Z,9.90
2023-05-09T06:40:17.784Z,8.50
2023-05-09T06:42:45.205Z,8.02
2023-05-09T06:45:12.640Z,8.52
2023-05-09T06:47:39.767Z,8.32
2023-05-09T06:50:07.720Z,8.70
2023-05-09T06:52:35.072Z,8.27
2023-05-09T06:55:02.266Z,8.00
2023-05-09T06:57:29.407Z,6.85
2023-05-09T06:59:56.632Z,6.45
2023-05-09T07:02:23.635Z,7.13
2023-05-09T07:04:52.175Z,7.03
2023-05-09T07:07:19.252Z,6.82
2023-05-09T07:09:46.563Z,6.90
2023-05-09T07:12:13.860Z,7.60
2023-05-09T07:14:42.073Z,7.80
2023-05-09T07:17:22.048Z,7.45
2023-05-09T07:19:51.520Z,7.68
2023-05-09T07:22:18.717Z,8.38
2023-05-09T07:24:46.707Z,9.55
2023-05-09T07:27:14.301Z,8.60
2023-05-09T07:29:41.296Z,8.00
2023-05-09T07:32:09.993Z,8.18
2023-05-09T07:34:37.138Z,8.73
2023-05-09T07:37:04.435Z,8.52
2023-05-09T07:39:31.512Z,9.60
2023-05-09T07:41:58.798Z,10.27
2023-05-09T07:44:25.976Z,9.32
2023-05-09T07:46:56.542Z,9.73
2023-05-09T07:49:23.622Z,10.45
2023-05-09T07:51:50.704Z,10.15
2023-05-09T07:54:17.823Z,9.10
2023-05-09T07:56:44.793Z,9.52
2023-05-09T07:59:12.463Z,10.25
2023-05-09T08:01:39.694Z,8.98
2023-05-09T08:04:09.163Z,8.93
2023-05-09T08:06:36.982Z,8.40
2023-05-09T08:09:29.657Z,9.07
2023-05-09T08:12:22.715Z,8.05
2023-05-09T08:14:56.743Z,7.88
2023-05-09T08:17:32.639Z,8.25
2023-05-09T08:19:59.726Z,8.70
2023-05-09T08:22:26.815Z,7.88
2023-05-09T08:24:53.845Z,8.02
2023-05-09T08:27:20.879Z,8.15
2023-05-09T08:29:48.264Z,8.95
2023-05-09T08:32:15.500Z,8.18
2023-05-09T08:34:43.768Z,8.13
2023-05-09T08:37:12.277Z,7.28
2023-05-09T08:39:41.710Z,7.75
2023-05-09T08:42:10.043Z,6.95
2023-05-09T08:44:37.433Z,6.60
2023-05-09T08:47:05.234Z,6.78
2023-05-09T08:49:33.600Z,6.90
2023-05-09T08:52:01.576Z,6.97
2023-05-09T08:54:30.316Z,7.00
2023-05-09T08:57:01.856Z,6.32
2023-05-09T08:59:30.209Z,6.75
2023-05-09T09:02:00.280Z,7.28
2023-05-09T09:04:27.933Z,6.10
2023-05-09T09:06:55.953Z,6.70
2023-05-09T09:09:24.255Z,6.22
2023-05-09T09:11:53.350Z,6.00
2023-05-09T09:14:27.857Z,6.38
2023-05-09T09:16:56.244Z,5.70
2023-05-09T09:19:29.670Z,6.07
2023-05-09T09:21:59.867Z,6.10
2023-05-09T09:24:26.932Z,5.90
2023-05-09T09:26:54.032Z,5.75
2023-05-09T09:29:21.247Z,6.20
2023-05-09T09:31:52.654Z,6.10
2023-05-09T09:34:22.574Z,5.28
2023-05-09T09:36:50.739Z,5.50
2023-05-09T09:39:17.917Z,5.35
2023-05-09T09:41:45.333Z,5.25
2023-05-09T09:44:23.345Z,5.22
2023-05-09T09:46:52.568Z,5.32
2023-05-09T09:49:22.073Z,5.63
2023-05-09T09:51:57.290Z,5.30
2023-05-09T09:54:28.124Z,4.82
2023-05-09T09:56:56.771Z,5.28
2023-05-09T09:59:25.976Z,5.18
2023-05-09T10:02:04.934Z,5.00
2023-05-09T10:04:36.125Z,4.97
2023-05-09T10:07:06.499Z,4.65
2023-05-09T10:09:35.359Z,5.43
2023-05-09T10:12:04.835Z,5.55
2023-05-09T10:14:35.617Z,5.88
2023-05-09T10:17:05.056Z,5.30
2023-05-09T10:19:33.121Z,5.40
2023-05-09T10:22:05.741Z,4.45
2023-05-09T10:25:06.808Z,5.05
2023-05-09T10:27:36.565Z,4.72
2023-05-09T10:30:17.203Z,5.15
2023-05-09T10:33:03.821Z,4.65
2023-05-09T10:35:36.752Z,5.63
2023-05-09T10:38:04.655Z,4.82
2023-05-09T10:40:34.420Z,5.15
2023-05-09T10:43:01.469Z,4.35
2023-05-09T10:45:29.024Z,3.90
2023-05-09T10:47:57.116Z,4.60
2023-05-09T10:50:25.311Z,4.75
2023-05-09T10:53:08.776Z,4.80
2023-05-09T10:55:50.380Z,5.47
2023-05-09T10:58:28.933Z,4.45
2023-05-09T11:00:58.555Z,5.15
2023-05-09T11:03:27.462Z,4.45
2023-05-09T11:05:58.997Z,4.28
2023-05-09T11:08:30.871Z,4.95
2023-05-09T11:11:02.616Z,4.70
2023-05-09T11:13:36.481Z,3.92
2023-05-09T11:16:03.590Z,4.97
2023-05-09T11:18:33.988Z,4.28
2023-05-09T11:21:08.885Z,3.95
2023-05-09T11:23:36.172Z,4.03
2023-05-09T11:26:08.719Z,4.22
2023-05-09T11:28:37.797Z,4.00
2023-05-09T11:31:13.031Z,4.30
2023-05-09T11:33:41.759Z,4.13
2023-05-09T11:36:29.765Z,4.38
2023-05-09T11:39:04.897Z,4.68
2023-05-09T11:41:39.547Z,5.45
2023-05-09T11:44:20.851Z,4.95
2023-05-09T11:46:49.586Z,4.97
2023-05-09T11:49:17.387Z,4.93
2023-05-09T11:51:44.534Z,4.93
2023-05-09T11:54:13.790Z,4.75
2023-05-09T11:56:42.238Z,4.40
2023-05-09T11:59:10.658Z,5.82
2023-05-09T12:01:37.835Z,5.28
2023-05-09T12:04:07.181Z,4.93
2023-05-09T12:06:34.642Z,5.28
2023-05-09T12:09:01.925Z,4.82
2023-05-09T12:11:32.573Z,5.57
2023-05-09T12:13:59.884Z,5.78
2023-05-09T12:16:26.946Z,7.35
2023-05-09T12:18:54.552Z,5.45
2023-05-09T12:21:22.130Z,5.65
2023-05-09T12:23:51.683Z,5.30
2023-05-09T12:26:22.804Z,5.70
2023-05-09T12:28:50.892Z,6.15
2023-05-09T12:31:21.067Z,5.57
2023-05-09T12:33:48.454Z,5.53
2023-05-09T12:36:16.888Z,5.35
2023-05-09T12:38:56.814Z,6.65
2023-05-09T12:43:56.005Z,5.78
2023-05-09T12:46:23.297Z,5.22
2023-05-09T12:48:50.591Z,5.03
2023-05-09T12:51:21.878Z,4.13
2023-05-09T12:53:49.369Z,5.00
2023-05-09T12:56:23.642Z,4.50
2023-05-09T12:58:55.017Z,6.20
2023-05-09T13:01:27.970Z,4.70
2023-05-09T13:06:32.515Z,5.15
2023-05-09T13:09:06.130Z,4.20
2023-05-09T13:11:33.805Z,4.00
2023-05-09T13:14:02.951Z,4.20
2023-05-09T13:16:30.278Z,4.00
2023-05-09T13:18:57.577Z,4.60
2023-05-09T13:21:24.738Z,5.57
2023-05-09T13:23:52.335Z,5.35
2023-05-09T13:26:19.816Z,5.63
2023-05-09T13:28:46.947Z,5.53
2023-05-09T13:31:14.486Z,4.88
2023-05-09T13:33:42.178Z,5.40
2023-05-09T13:36:09.510Z,5.22
2023-05-09T13:38:40.884Z,6.40
2023-05-09T13:41:09.020Z,6.20
2023-05-09T13:43:38.168Z,6.18
2023-05-09T13:46:05.569Z,5.63
2023-05-09T13:48:32.682Z,6.68
2023-05-09T13:51:01.296Z,6.05
2023-05-09T13:53:28.532Z,5.50
2023-05-09T13:55:55.510Z,5.50
2023-05-09T13:58:22.889Z,5.15
2023-05-09T14:00:50.394Z,4.45
2023-05-09T14:03:17.574Z,3.95
2023-05-09T14:05:44.700Z,3.25
2023-05-09T14:08:12.355Z,3.97
2023-05-09T14:10:39.784Z,3.53
2023-05-09T14:13:08.564Z,4.32
2023-05-09T14:15:36.155Z,4.38
2023-05-09T14:18:03.290Z,4.43
2023-05-09T14:20:30.408Z,3.90
2023-05-09T14:23:00.723Z,3.65
2023-05-09T14:25:27.970Z,4.20
2023-05-09T14:27:55.204Z,4.38
2023-05-09T14:30:23.203Z,3.40
2023-05-09T14:32:50.234Z,3.30
2023-05-09T14:35:17.406Z,4.13
2023-05-09T14:37:44.604Z,3.63
2023-05-09T14:40:12.402Z,4.05
2023-05-09T14:42:39.698Z,3.03
2023-05-09T14:45:07.818Z,3.55
2023-05-09T14:47:34.949Z,4.57
2023-05-09T14:50:02.271Z,4.13
2023-05-09T14:52:29.432Z,3.45
2023-05-09T14:54:56.593Z,3.78
2023-05-09T14:57:23.622Z,3.72
2023-05-09T14:59:50.689Z,3.75
2023-05-09T15:02:17.759Z,4.35
2023-05-09T15:04:45.146Z,3.78
2023-05-09T15:07:12.138Z,4.13
2023-05-09T15:09:39.357Z,4.10
2023-05-09T15:12:06.696Z,3.83
2023-05-09T15:14:33.780Z,3.55
2023-05-09T15:17:03.545Z,3.83
2023-05-09T15:19:34.246Z,3.25
2023-05-09T15:22:01.878Z,3.20
2023-05-09T15:24:28.885Z,3.08
2023-05-09T15:26:56.210Z,3.20
2023-05-09T15:29:23.301Z,3.17
2023-05-09T15:31:50.573Z,3.42
2023-05-09T15:34:17.649Z,2.67
2023-05-09T15:36:44.879Z,3.53
2023-05-09T15:39:11.921Z,2.97
2023-05-09T15:41:39.067Z,3.38
2023-05-09T15:44:06.886Z,3.15
2023-05-09T15:46:34.297Z,3.45
2023-05-09T15:49:01.362Z,3.20
2023-05-09T15:51:30.222Z,3.03
2023-05-09T15:53:57.220Z,3.70
2023-05-09T15:56:24.416Z,3.92
2023-05-09T15:58:51.435Z,3.90
2023-05-09T16:01:19.297Z,4.10
2023-05-09T16:03:46.549Z,4.32
2023-05-09T16:06:13.762Z,4.72
2023-05-09T16:08:40.796Z,3.40
2023-05-09T16:11:08.084Z,3.83
2023-05-09T16:13:36.079Z,4.10
2023-05-09T16:16:03.640Z,4.88
2023-05-09T16:18:30.900Z,3.90
2023-05-09T16:20:58.024Z,3.92
2023-05-09T16:23:26.160Z,3.75
2023-05-09T16:25:53.298Z,4.68
2023-05-09T16:28:23.636Z,4.15
2023-05-09T16:30:51.657Z,4.55
2023-05-09T16:33:18.727Z,4.63
2023-05-09T16:35:47.677Z,5.22
2023-05-09T16:38:14.888Z,5.18
2023-05-09T16:40:42.364Z,4.82
2023-05-09T16:43:09.666Z,6.72
2023-05-09T16:45:36.940Z,4.88
2023-05-09T16:48:04.186Z,3.88
2023-05-09T16:50:31.293Z,4.18
2023-05-09T16:52:58.477Z,5.03
2023-05-09T16:55:25.599Z,6.50
2023-05-09T16:57:52.662Z,4.53
2023-05-09T17:00:20.209Z,4.88
2023-05-09T17:02:47.390Z,4.35
2023-05-09T17:05:14.802Z,4.70
2023-05-09T17:07:42.016Z,4.00
2023-05-09T17:10:09.395Z,4.18
2023-05-09T17:12:38.885Z,3.30
2023-05-09T17:15:07.712Z,3.72
2023-05-09T17:17:35.889Z,4.60
2023-05-09T17:20:04.565Z,2.97
2023-05-09T17:22:31.756Z,3.80
2023-05-09T17:24:58.946Z,3.80
2023-05-09T17:27:27.240Z,4.90
2023-05-09T17:29:54.434Z,3.80
2023-05-09T17:32:21.661Z,3.55
2023-05-09T17:34:48.897Z,3.47
2023-05-09T17:37:17.410Z,3.30
2023-05-09T17:39:46.276Z,3.40
2023-05-09T17:42:13.390Z,3.65
2023-05-09T17:44:43.041Z,3.15
2023-05-09T17:47:12.767Z,4.15
2023-05-09T17:49:40.161Z,3.95
2023-05-09T17:52:07.461Z,3.20
2023-05-09T17:54:34.677Z,3.38
2023-05-09T17:57:02.351Z,3.15
2023-05-09T17:59:29.704Z,3.33
2023-05-09T18:01:56.893Z,3.88
2023-05-09T18:04:24.084Z,3.67
2023-05-09T18:06:51.314Z,3.47
2023-05-09T18:09:18.759Z,3.28
2023-05-09T18:11:45.905Z,3.90
2023-05-09T18:14:13.171Z,4.22
2023-05-09T18:16:40.252Z,4.47
2023-05-09T18:19:07.439Z,4.30
2023-05-09T18:21:35.882Z,4.95
2023-05-09T18:24:03.101Z,4.50
2023-05-09T18:26:30.565Z,4.78
2023-05-09T18:32:09.318Z,6.40
2023-05-09T18:34:36.839Z,5.28
2023-05-09T18:37:04.021Z,5.72
2023-05-09T18:39:31.213Z,5.35
2023-05-09T18:41:58.418Z,5.40
2023-05-09T18:44:25.557Z,5.40
2023-05-09T18:46:54.632Z,4.93
2023-05-09T18:49:22.706Z,5.35
2023-05-09T18:51:49.963Z,5.18
2023-05-09T18:54:18.092Z,4.60
2023-05-09T18:56:46.080Z,5.40
2023-05-09T18:59:16.341Z,4.57
2023-05-09T19:01:44.343Z,5.15
2023-05-09T19:04:11.897Z,4.53
2023-05-09T19:06:40.928Z,4.63
2023-05-09T19:09:08.362Z,4.72
2023-05-09T19:11:36.049Z,5.50
2023-05-09T19:14:03.900Z,5.15
2023-05-09T19:16:32.900Z,5.50
2023-05-09T19:19:01.084Z,6.40
2023-05-09T19:21:29.002Z,5.82
2023-05-09T19:23:56.353Z,6.53
2023-05-09T19:26:23.964Z,6.47
2023-05-09T19:28:51.187Z,6.03
2023-05-09T19:31:20.560Z,6.15
2023-05-09T19:33:48.284Z,5.57
2023-05-09T19:36:15.480Z,5.30
2023-05-09T19:38:42.838Z,4.72
2023-05-09T19:41:11.065Z,5.43
2023-05-09T19:43:38.671Z,5.72
2023-05-09T19:46:06.168Z,5.53
2023-05-09T19:48:35.636Z,5.18
2023-05-09T19:51:03.304Z,4.82
2023-05-09T19:53:30.506Z,5.40
2023-05-09T19:55:58.333Z,4.90
2023-05-09T19:58:25.909Z,4.63
2023-05-09T20:00:52.966Z,5.10
2023-05-09T20:03:20.344Z,4.68
2023-05-09T20:05:47.758Z,5.40
2023-05-09T20:08:15.120Z,4.57
2023-05-09T20:10:42.504Z,4.75
2023-05-09T20:13:09.753Z,4.70
2023-05-09T20:15:37.120Z,4.38
2023-05-09T20:18:07.423Z,4.70
2023-05-09T20:20:35.253Z,5.05
2023-05-09T20:23:02.999Z,4.72
2023-05-09T20:25:31.186Z,5.22
2023-05-09T20:27:58.976Z,4.97
2023-05-09T20:30:26.352Z,4.70
2023-05-09T20:32:54.635Z,4.65
2023-05-09T20:35:22.467Z,5.07
2023-05-09T20:37:49.999Z,4.55
2023-05-09T20:40:17.525Z,4.75
2023-05-09T20:42:44.835Z,4.78
2023-05-09T20:45:12.173Z,4.97
2023-05-09T20:47:40.072Z,5.32
2023-05-09T20:50:08.087Z,4.57
2023-05-09T20:52:35.759Z,4.85
2023-05-09T20:55:03.177Z,4.63
2023-05-09T20:57:30.620Z,5.53
2023-05-09T20:59:58.163Z,5.88
2023-05-09T21:02:25.805Z,6.88
2023-05-09T21:04:53.027Z,5.70
2023-05-09T21:07:20.494Z,5.72
2023-05-09T21:09:48.017Z,5.57
2023-05-09T21:12:15.036Z,5.85
2023-05-09T21:14:42.396Z,5.43
2023-05-09T21:17:09.745Z,5.60
2023-05-09T21:19:36.927Z,5.13
2023-05-09T21:22:04.056Z,5.22
2023-05-09T21:24:31.129Z,4.72
2023-05-09T21:26:58.287Z,4.95
2023-05-09T21:29:25.445Z,4.82
2023-05-09T21:31:52.594Z,4.60
2023-05-09T21:34:19.574Z,4.47
2023-05-09T21:36:46.735Z,4.78
2023-05-09T21:39:13.684Z,4.78
2023-05-09T21:41:42.976Z,5.20
2023-05-09T21:44:11.365Z,5.22
2023-05-09T21:46:38.809Z,5.50
2023-05-09T21:49:06.018Z,5.72
2023-05-09T21:51:34.689Z,5.95
2023-05-09T21:54:01.676Z,5.75
2023-05-09T21:56:29.936Z,5.07
2023-05-09T21:58:56.965Z,6.40
2023-05-09T22:01:24.196Z,7.10
2023-05-09T22:03:51.889Z,6.25
2023-05-09T22:06:19.204Z,6.05
2023-05-09T22:08:46.386Z,7.32
2023-05-09T22:11:14.767Z,7.07
2023-05-09T22:13:42.625Z,8.30
2023-05-09T22:16:09.876Z,7.28
2023-05-09T22:18:37.351Z,7.30
2023-05-09T22:21:04.592Z,7.68
2023-05-09T22:23:31.801Z,8.15
2023-05-09T22:25:58.763Z,8.27
2023-05-09T22:28:27.972Z,7.90
2023-05-09T22:30:54.980Z,8.02
2023-05-09T22:33:22.140Z,8.75
2023-05-09T22:35:50.252Z,8.82
2023-05-09T22:38:17.272Z,8.25
2023-05-09T22:40:44.510Z,8.45
2023-05-09T22:43:11.838Z,8.15
2023-05-09T22:45:39.013Z,8.85
2023-05-09T22:48:06.507Z,8.15
2023-05-09T22:50:33.752Z,7.95
2023-05-09T22:53:01.428Z,8.73
2023-05-09T22:55:28.696Z,8.57
2023-05-09T22:57:55.865Z,8.77
2023-05-09T23:00:23.065Z,8.63
2023-05-09T23:02:50.320Z,8.70
2023-05-09T23:05:17.737Z,9.95
2023-05-09T23:07:44.863Z,8.82
2023-05-09T23:10:12.427Z,8.65
2023-05-09T23:12:39.462Z,9.05
2023-05-09T23:15:07.554Z,8.13
2023-05-09T23:17:35.093Z,8.85
2023-05-09T23:20:04.038Z,8.13
2023-05-09T23:22:31.518Z,8.50
2023-05-09T23:25:00.948Z,7.43
2023-05-09T23:27:28.538Z,7.35
2023-05-09T23:29:56.996Z,8.98
2023-05-09T23:32:24.079Z,8.10
2023-05-09T23:34:51.317Z,8.20
2023-05-09T23:37:18.837Z,9.10
2023-05-09T23:39:45.930Z,10.40
2023-05-09T23:42:12.910Z,10.35
2023-05-09T23:44:40.515Z,10.70
2023-05-09T23:47:07.591Z,9.90
2023-05-09T23:49:34.737Z,9.43
2023-05-09T23:52:01.764Z,9.13
2023-05-09T23:54:28.939Z,9.25
2023-05-09T23:56:57.469Z,9.05
2023-05-09T23:59:24.610Z,10.32
